ELIMINATOR 2019 - ETAP II

Wydarzenie:
Organizator:
Fundacja Bieg Rzeźnika
Data:
2019-06-08
Miejsce:
Ustroń
Dystans:
1.7 km
Zgłoszonych:
204
Wystartowało:
130
Nie ukończyło:
1
Ukończyło:
129
Na trasie:
1

Klasyfikacja: Wszyscy

Wyniki nieoficjalne !!!
Wyniki uproszczone: PDF | PDF2 | CSV
Klasyfikacje w punktach pomiarowych: 0.9km | Meta
Klasyfikacje wg kategorii: Wszyscy | K Open | M Open | 1KFala | 1MFala | K20 | M20 | K30 | M30 | K40 | M40 | K50 | M50 | K60 | M60

MscZawodnikNumerKlubMiejscowośćKrajKategoriaMkatK/M0.9kmCzas
netto
1.7km
Czas
brutto
1.7km
Różn.Tempo
min/km
Tempo
km/h
       
1LEPIARZ Sylwester 2002LKB RUDNIKWRONÓWM201M 100:06:4900:15:48.7000:15:48.70 9:176.5
2JAŚTAL Piotr 2126LKB RUDNIK/AZS UJK KIELCEDOMASZOWICEM202M 200:07:0900:16:05.4500:16:05.45+00:00:169:276.3
3SKUPIEŃ Tomasz 2003MUAY RUNNING TEAMSKAWINKIM301M 300:07:1600:16:20.6000:16:20.60+00:00:319:366.2
4BIERNAWSKI Piotr 2004ATTIQ TEAM/SALMINGNOWY TARGM401M 400:07:2300:16:33.4000:16:33.40+00:00:449:446.2
5JAWORSKI Zbigniew 2146...KLUSZKOWCEM402M 500:07:4700:16:59.7500:16:59.75+00:01:119:596
6BEDNARZ Adam 2016KS ŻEGLINA SIERADZZŁOCZEWM203M 600:07:5800:17:15.3500:17:15.35+00:01:2610:085.9
7OŚLIZŁO Tomasz 2090HUSARIA RACE TEAMGORZYCEM302M 700:08:1700:17:26.3000:17:26.30+00:01:3710:155.9
8BROJ Marcel 2142BROJ TEAM ŹLINICEŹLINICEM204M 800:08:1900:17:47.5500:17:47.55+00:01:5810:275.7
9MISIAK Bartosz 2147ALPIN SPORT HOKA ONE ONE TEAMCESKY TESINM303M 900:08:0700:17:52.8000:17:52.80+00:02:0410:305.7
10ZAKOWICZ Paweł 2144PIECHOTĄ PO SCHODACH - ŁÓDŹHALINÓWM304M 1000:07:5700:18:06.8000:18:06.80+00:02:1810:385.6
11DYCZEK Mariusz 2022DYCZUŚ TEAMZDZIESZOWICEM403M 1100:07:5900:18:08.5500:18:08.55+00:02:1910:405.6
12GAWLAS Dominik 2007UZDROWISKOWY TEAMCIESZYNM305M 1200:08:3300:18:27.0000:18:27.00+00:02:3810:515.5
13URBAŃCZYK Karol 2044GLIWICEM205M 1300:08:3200:18:31.7500:18:31.75+00:02:4310:535.5
14KAPAON Łazarz 2020CAZZO CLUB RUNNING TEAM/RUNTATA.PLWARSZAWAM206M 1400:08:3400:18:46.0000:18:46.00+00:02:5711:025.4
15TARGOSZ Michał Mateusz 2123FISI COMPRESSPORT NB TEAMKRAKÓWM306M 1500:08:3000:18:51.8500:18:51.85+00:03:0311:055.4
16HUZIOR Piotr 2162PTTIQNOWY TARGM404M 1600:08:3900:19:06.1000:19:06.10+00:03:1711:145.3
17JANUSZYK Iwona 1002KS KANDAHAR/ATTIQ TEAMOŚWIĘCIMK201K 100:09:0100:19:26.9000:19:26.90+00:03:3811:255.2
18TOKAREWICZ Damian 2041ZEBRYZEBRZYDOWICEM307M 1700:08:5300:19:33.3000:19:33.30+00:03:4411:305.2
19MAGIERA Janusz 2005FORMA WODZISŁAW ŚLĄSKIWODZISŁAW ŚLĄSKIM501M 1800:09:0900:19:48.3500:19:48.35+00:03:5911:385.2
20CZOK Maria 1004ALPIN SPORT HOKA ONE ONE TEAM/ UBSSTRZELCE OPOLSKIEK301K 200:09:2100:20:03.3000:20:03.30+00:04:1411:475.1
21SOKOŁOWSKI Marek 2006ALPIN SPORT HOKA ONE ONE TEAMMYSŁOWICE-WESOŁAM502M 1900:09:1900:20:06.2000:20:06.20+00:04:1711:495.1
22FLISIŃSKI Łukasz 2071SOSNOWIECM308M 2000:09:1100:20:07.5500:20:07.55+00:04:1811:505.1
23JAKIEŁA Michał 2143KRAKÓWM309M 2100:09:2000:20:10.3500:20:10.35+00:04:2111:515.1
24FABIAN Marcel 2135SOCIOS SILESIAPYSKOWICEM207M 2200:09:3500:20:25.4000:20:25.40+00:04:3612:005
25FIJAK Jan 2054SIENNAM405M 2300:09:3000:20:25.9500:20:25.95+00:04:3712:005
26KURYŁO Jakub 2092AUGUSTÓWM208M 2400:09:1300:20:27.8500:20:27.85+00:04:3912:015
27SKALSKA Anna 1003CARBON OCR RACING TEAM FESTIWAL BIEGOWY KRYNICA ZDRÓJBYTOMK302K 300:09:2400:20:27.8500:20:27.85+00:04:3912:015
28SNARSKI Dariusz 2060WATAHA-ŁĄCZY NAS BIEGANIEKATOWICEM406M 2500:09:3100:20:35.8000:20:35.80+00:04:4712:065
29SZAFRANEK Paweł 2069BIEGIEM PRZEZ CHYBIEUSTROŃM209M 2600:10:0700:20:51.2500:20:51.25+00:05:0212:154.9
30BADURA Adam 2153FORMA WODZISŁAW ŚLĄSKIRYBNIKM407M 2700:09:4700:20:54.3000:20:54.30+00:05:0512:174.9
31MARTYNEK Jakub 2102SKI MOSTYMOSTY U JABLUNKOVAM2010M 2800:08:5300:20:55.4500:20:55.45+00:05:0612:184.9
32WASZTYL Tomasz 2085BIELSKO - BIAŁAM503M 2900:09:3200:20:57.0500:20:57.05+00:05:0812:194.9
33MALINOWSKI Mateusz 2012MYSŁOWICEM3010M 3000:09:2100:20:57.8500:20:57.85+00:05:0912:194.9
34SZKODA Dariusz 2164SOCIOS SILESIARUDA ŚLĄSKAM3011M 3100:09:3600:20:58.6000:20:58.60+00:05:0912:204.9
35OSETEK Paweł 2163RADLINIOKI W BIEGUPSZÓWM3012M 3200:09:3900:20:58.8000:20:58.80+00:05:1012:204.9
36WIECZOREK Damian 2131UZDROWISKOKATOWICEM408M 3300:09:3800:20:59.6500:20:59.65+00:05:1012:204.9
37PILSNIAK Krzysztof 2083LIBERTÓWM409M 3400:09:3400:21:02.1500:21:02.15+00:05:1312:224.8
38DENICKI Przemysław 2113KOLEJ LINOWA CZANTORIAKNURÓWM2011M 3500:09:4000:21:03.2000:21:03.20+00:05:1412:224.8
39BUCZYŃSKI Adam 2024NON STOP TRAILKRAKÓWM4010M 3600:09:5400:21:13.7500:21:13.75+00:05:2512:284.8
40ZATORSKA Izabela 1007ALPIN SPORT HOKA ONE ONETEAMWROCANKAK501K 400:09:3700:21:19.6000:21:19.60+00:05:3012:324.8
41BRÓG Wojciech 2009OLKUSZM4011M 3700:09:4100:21:19.7500:21:19.75+00:05:3112:324.8
42KOZIOŁ Kamil 2136G.O.A.T. TEAM / MŁYN TRAIL MICHAŁOWICEMICHAŁOWICEM2012M 3800:09:5000:21:20.6500:21:20.65+00:05:3112:324.8
43JARCZOK Zdzichu 2019VIKING TRAINING CENTERŁAKAM3013M 3900:09:5000:21:25.0500:21:25.05+00:05:3612:354.8
44SZEWCZYK Damian 2080JEJKOWICEM4012M 4000:09:4800:21:26.1000:21:26.10+00:05:3712:364.8
45OPOLONY Ireneusz 2165SOCIOS SILESIAŁAŃCEM3014M 4100:09:5400:21:28.8500:21:28.85+00:05:4012:374.8
46KROTLA Piotr 2121TRIATHLON TRAINING CENTERCZĘSTOCHOWAM3015M 4200:09:4900:21:36.5000:21:36.50+00:05:4712:424.7
47KUBACZKA Grzegorz 2091WWW.AG-ARCHITEKCI.PLSKOCZÓWM3016M 4300:09:3900:21:40.5500:21:40.55+00:05:5112:444.7
48HECZKO Adam 2128UZDROWISKOWY TEAMPOGWIZDÓWM3017M 4400:10:0500:21:48.4000:21:48.40+00:05:5912:494.7
49BUKOWSKI Marek 2081BYTOMM4013M 4500:09:5900:21:54.0000:21:54.00+00:06:0512:524.7
50URBAN Wiktor 2082NIGHT RUNNERS ZABRZE / ZPBZABRZEM3018M 4600:09:4800:21:54.0500:21:54.05+00:06:0512:524.7
51JAKUBCZYK Dariusz 2094CKBABCIE/WOŹNIAKRUNNINGTEAMPIEKOSZÓWM4014M 4700:10:1300:22:00.0500:22:00.05+00:06:1112:564.6
52ZABEL Robert 2148ZABEL.PLPOZNAŃM4015M 4800:10:0500:22:01.4500:22:01.45+00:06:1212:574.6
53GRUND Marek 2011MAFIA TEAM LUBLINIECSTRZEBIŃM3019M 4900:10:1400:22:03.4000:22:03.40+00:06:1412:584.6
54GRUSZKA Grzegorz 2049ENDURANCE TEAMSIEMIANOWICE ŚLĄSKIEM4016M 5000:09:5700:22:08.9500:22:08.95+00:06:2013:014.6
55GARCORZ Dawid 2014MAFIA TEAM LUBLINIECDZIELNAM2013M 5100:10:1500:22:13.2500:22:13.25+00:06:2413:044.6
56GAMZA Mariusz 2079PĘDZĄCE ŻÓŁWIE IMICZERWIONKA LESZCZYNYM3020M 5200:09:5500:22:16.0500:22:16.05+00:06:2713:054.6
57DWORNICKI Tomasz 2104RYBNICKA GRUPA BIEGOWA PĘDZIMY RAZEMRYBNIKM4017M 5300:10:2700:22:20.6500:22:20.65+00:06:3113:084.6
58ŁUKOSZ Tomasz 2109XXXUSTROŃM3021M 5400:10:2000:22:23.6500:22:23.65+00:06:3413:104.6
59KORCZ Daniel 2161JAWORZNO RUNNERSJAWORZNOM4018M 5500:10:2600:22:27.4000:22:27.40+00:06:3813:124.5
60OCHMAN Paweł 2111FUTURE PROCESSING RUNNING TEAMGLIWICEM3022M 5600:10:4500:22:28.5000:22:28.50+00:06:3913:124.5
61WOJNO Arkadiusz 2018DROGA DO ULTRAŁÓDŹM3023M 5700:10:3900:22:31.6500:22:31.65+00:06:4213:144.5
62MIZERA Krzysztof 2117KRAKÓWM3024M 5800:10:1600:22:33.7500:22:33.75+00:06:4513:154.5
63SOBOLA Grzegorz 2051RACIBÓRZM2014M 5900:10:1700:22:35.8500:22:35.85+00:06:4713:174.5
64KUŚMIERSKI Michał 2038NO I?BIELSKO-BIAŁAM4019M 6000:10:4700:22:47.1500:22:47.15+00:06:5813:244.5
65KUKUCZKA Dominik 2035TRAILRUN KUKUCZKAJAWORZYNKAM2015M 6100:09:4700:22:48.1500:22:48.15+00:06:5913:244.5
66WÓJCICKI Kamil 2132RAJSPORT ACTIVE OPOLELISIĘCICEM2016M 6200:10:3300:22:57.5500:22:57.55+00:07:0813:304.4
67CUDZIŁO Łukasz 2086X-MAN TEAMKIELCEM3025M 6300:10:3800:22:59.3500:22:59.35+00:07:1013:314.4
68TOPOROWICZ Agata 1024BIELSKO-BIAŁAK401K 500:10:2700:23:04.1000:23:04.10+00:07:1513:344.4
69URBAN Mirosław 2021ITMBW KRAKÓWKRAKÓWM3026M 6400:11:0500:23:09.0500:23:09.05+00:07:2013:374.4
70RAKSZAWA Krzysztof 2158RYBNIKM4020M 6500:10:4400:23:24.5500:23:24.55+00:07:3513:454.4
71STEFAŃCZUK Waldemar 2130UZDROWISKO USTROŃKATOWICEM4021M 6600:10:5000:23:24.9000:23:24.90+00:07:3613:454.4
72MARKIEWICZ Karol 2096BIEGAM ŻEBY ŻREĆ WIĘCEJ CIASTKÓWBIELSKO-BIAŁAM3027M 6700:10:4000:23:25.6500:23:25.65+00:07:3613:464.4
73ŁASKI Mateusz 2013LANCKORONAM2017M 6800:11:0200:23:36.0500:23:36.05+00:07:4713:524.3
74MARTYNEK Vladislav 2101SKI MOSTYMOSTY U JABLUNKOVAM601M 6900:10:4200:23:42.0000:23:42.00+00:07:5313:564.3
75MIKULSKI Michał 2138GREMI BOCHNIABOCHNIAM3028M 7000:10:5400:23:50.7000:23:50.70+00:08:0214:014.3
76CHAWONIOK Anna 1035K202K 600:10:4800:23:52.4500:23:52.45+00:08:0314:024.3
77LANGE Beata 1005BIŁGORAJ BIEGABIŁGORAJK402K 700:11:2900:23:58.6000:23:58.60+00:08:0914:054.3
78MAZUR Damian 2033SOCIOS SILESIARUDA ŚLĄSKAM3029M 7100:11:0100:23:59.9000:23:59.90+00:08:1114:064.3
79DOLNY Tomasz 2154M4022M 7200:11:1500:24:16.1000:24:16.10+00:08:2714:164.2
80CHACHUŁA Ryszard 2030DYCZUŚ TEAMZDZIESZOWICEM4023M 7300:11:0900:24:17.5000:24:17.50+00:08:2814:174.2
81MAZUREK Roman 2084SPARTANIE DZIECIOMMURÓWM4024M 7400:11:3300:24:18.5500:24:18.55+00:08:2914:174.2
82BOLECHOWSKA Dominika 1039ALPIN SPORT HOKA ONE ONETEAMK403K 800:11:3300:24:28.7000:24:28.70+00:08:4014:234.2
83RYCERSKI Rafał 2156CZAPLINEKM3030M 7500:10:5700:24:29.0500:24:29.05+00:08:4014:244.2
84MROWIEC Kacper 2098ŻYWIECM2018M 7600:11:1700:24:31.7500:24:31.75+00:08:4314:254.2
85NAGIEL Andrzej 2053ZABIEGANI CZĘSTOCHOWACZĘSTOCHOWAM4025M 7700:11:2900:24:40.0000:24:40.00+00:08:5114:304.1
86MAŁKOWSKI Bogdan 2025SPARTANIE DZIECIOMMURÓWM504M 7800:11:2300:24:50.9500:24:50.95+00:09:0214:364.1
87KADŁUBEK Aleksander 2047TKTJ/OSP REPTY ŚLĄSKIETARNOWSKIE GÓRYM3031M 7900:11:4500:25:05.8000:25:05.80+00:09:1714:454.1
88GLOS Janusz 2137MIĘDZYŚWIEĆM3032M 8000:11:2900:25:08.2500:25:08.25+00:09:1914:474.1
89BEDNARZ Sebastian 2037OTM.BOTMUCHÓWM4026M 8100:11:2500:25:12.4000:25:12.40+00:09:2314:494
90SWOBODA Tomasz 2067KURŁA KAJ TA META?!SZYMISZÓWM3033M 8200:11:0900:25:21.9500:25:21.95+00:09:3314:544
91RYBIŃSKI Łukasz 2065EŁKA TEAMRUDA ŚLĄSKAM3034M 8300:11:1800:25:27.3500:25:27.35+00:09:3814:584
92MAZUREK Piotr 2116MCKIS JAWORZNOJAWORZNOM3035M 8400:12:0700:25:31.0000:25:31.00+00:09:4215:004
93GAZDA Mariusz 2074KROSNOKROSNOM4027M 8500:11:5100:25:34.0500:25:34.05+00:09:4515:024
94KONDRATIUK Ira 1019BIEGAM ŻEBY ŻREĆ WIĘCEJ CIASTKÓWBIELSKO-BIAŁAK203K 900:11:4600:25:36.9500:25:36.95+00:09:4815:034
95STEFANIAK Justyna 1006KB LUPUS OLEŚNICAOLEŚNICAK404K 1000:12:0200:25:44.0000:25:44.00+00:09:5515:084
96GREGORCZYK Marcin 2075STS BIEGATON MIKOŁÓWMIKOŁÓWM4028M 8600:11:2200:25:44.9500:25:44.95+00:09:5615:084
97DANIKIEWICZ Michał 2114ROZBIEGAMY TO MIASTO - CZECHOWICE-DZIEDZICECZECHOWICE-DZIEDZICEM3036M 8700:11:4100:25:46.7500:25:46.75+00:09:5815:094
98SOSNOWSKA Izabela 1021CZĘSTOCHOWAK204K 1100:12:0700:25:54.9500:25:54.95+00:10:0615:143.9
99ORŁOWSKI Łukasz 2106GOŁCZA TEAMGOŁCZAM4029M 8800:12:3300:26:12.1000:26:12.10+00:10:2315:243.9
100WILK Tomasz 2029MOMNATOCAŁEŻYCIEMIKOŁÓWM4030M 8900:12:1200:26:17.6500:26:17.65+00:10:2815:273.9
101ZAJDEL Michał 2059SOCIOS SILESIARUDA ŚLĄSKAM4031M 9000:12:0900:26:17.8500:26:17.85+00:10:2915:273.9
102KURYŁO Zenon 2036SBD ENERGETYK RYBNIKRYBNIKM505M 9100:12:2200:26:21.7500:26:21.75+00:10:3315:303.9
103KOWAL Łukasz 2139FITNESS EXPRESS RYBNIKRYBNIKM2019M 9200:12:0600:26:27.8500:26:27.85+00:10:3915:333.9
104POTOCZNY Mirosław 2073JAWORZNOM4032M 9300:12:4500:26:34.3000:26:34.30+00:10:4515:373.8
105LORENS Magdalena 1023G.O.A.T. TEAM MICHAŁOWICEMICHAŁOWICEK205K 1200:12:2700:26:34.9500:26:34.95+00:10:4615:373.8
106SZNAJDER Joanna 1025G.O.A.T. TEAM MICHAŁOWICEMICHAŁOWICEK303K 1300:12:3200:27:27.4000:27:27.40+00:11:3816:083.7
107SZNAJDER Rafał 2097G.O.A.T. TEAM MICHAŁOWICEMICHAŁOWICEM4033M 9400:12:0800:27:36.5000:27:36.50+00:11:4716:143.7
108POJDA Grzegorz 2120RYBNICKA GRUPA BIEGOWA PĘDZIMY RAZEMRYBNIKM4034M 9500:12:4300:27:45.0500:27:45.05+00:11:5616:193.7
109PUCHAJDA Monika 1029OŚWIĘCIMK304K 1400:12:4200:27:55.1500:27:55.15+00:12:0616:253.7
110CIEŚLAR Kasia 1018USTROŃK305K 1500:13:1800:28:01.6500:28:01.65+00:12:1216:283.6
111ZIELIŃSKA Ewelina 1034ZABRZEK206K 1600:13:0900:28:03.0500:28:03.05+00:12:1416:303.6
112LITWINOWICZ Karo 1030BEDZINK306K 1700:13:1000:28:26.7500:28:26.75+00:12:3816:433.6
113BAC Żaneta 1037PYSKOWICEK307K 1800:13:0200:28:48.3000:28:48.30+00:12:5916:563.5
114WOJNO Małgorzata 1020DROGA DO ULTRAŁÓDŹK308K 1900:13:2300:28:59.0000:28:59.00+00:13:1017:023.5
115PIDANTY Łukasz 2023JASTRZĘBIE ZDRÓJM3037M 9600:12:5900:29:03.2500:29:03.25+00:13:1417:053.5
116GÓRECKA Iwona 1026SZCZERBICEK405K 2000:13:1600:29:18.1500:29:18.15+00:13:2917:143.5
117DZIEGUĆ Piotr 2087CZECHOWICE-DZIEDZICEM3038M 9700:14:0300:29:30.8000:29:30.80+00:13:4217:213.5
118GUZDEK Tomasz 2039PSP BYTOMBYTOMM3039M 9800:11:5400:29:43.3000:29:43.30+00:13:5417:283.4
119MIKULSKA Barbara 1031GREMI BOCHNIANOWY WIŚNICZK406K 2100:13:4900:30:16.7500:30:16.75+00:14:2817:483.4
120HELLER Szymon 2103BRENNAM3040M 9900:14:2500:30:17.6500:30:17.65+00:14:2817:483.4
121MALINOWSKI Adrian 2027#CZELADZBIEGABĘDZINM4035M 10000:12:4200:30:30.5000:30:30.50+00:14:4117:563.3
122MATUSIAK Dawid 2040RYBNIKM3041M 10100:13:1300:30:30.8000:30:30.80+00:14:4217:563.3
123RYBCZYŃSKI Jarosław 2133DZIKIE ŻYCIE RUN TEAMSIEMIANOWICE ŚLĄSKIEM4036M 10200:14:0600:30:58.0000:30:58.00+00:15:0918:123.3
124LISOWSKA Kamila 1016LEŚNE RUN / NIGHT RUNNERS ZABRZEZABRZEK309K 2200:14:1400:31:05.5500:31:05.55+00:15:1618:173.3
125MĄDRZYK Daniel 2017IB TEAMSOSNOWIECM3042M 10300:15:1000:32:53.0000:32:53.00+00:17:0419:203.1
126ROGOSZ Marcin 2045SOCIOS SILESIARUDA ŚLĄSKAM4037M 10400:15:2000:33:33.8000:33:33.80+00:17:4519:443
127NORAS Alina 1010PWC SDC RUNNERS TEAMIMIELINK3010K 2300:15:4300:33:51.7500:33:51.75+00:18:0319:543
128MĄCZKA Krystyna 1036EKSTREMALNE OTK NA RELAKSIEGLIWICEK601K 2400:16:4800:35:30.6000:35:30.60+00:19:4120:522.9
129KURYŁO Paweł 2058AUGUSTÓWM4038M 105   
SUDNIK Krzysztof 2077KNURÓWM3000:09:56 DNF DNF DNF--
Znaleziono 130 wynik(ów)